Departure
Konotori Tajima Airport
Toyooka, JP
cloud Weather
- Wind
- 350° / 3 kt
- Visibility
- 6 SM
- Ceiling
- FEW 3,000 ft
- Temp / Dew
- 29°C / 22°C
- Altimeter
- 29.91 inHg
Obs: 2026-09-01T09:00:00.000Z
Raw METAR
METAR RJBT 010900Z 35003KT 9999 FEW030 29/22 Q1013
route Route
Departure
Toyooka, JP
Obs: 2026-09-01T09:00:00.000Z
METAR RJBT 010900Z 35003KT 9999 FEW030 29/22 Q1013
Arrival
Osaka, JP
Obs: 2026-09-01T09:00:00.000Z
METAR RJOO 010900Z 24006KT 180V290 9999 FEW030 30/24 Q1012 TAF RJOO 010508Z 0106/0212 21005KT 9999 FEW020 SCT040 BECMG 0106/0108 24005KT BECMG 0121/0200 09006KT TEMPO 0203/0212 TS FEW020 FEW025CB BKN035
| Airline | Flights shown |
|---|---|
| Japan Airlines | 50 |
| Date | Flight | Aircraft | Takeoff | Landing | Duration | Arr Δ |
|---|---|---|---|---|---|---|
| 2026-07-26 | JL2326 | 8405AA | Jul 26, 09:15 UTC | Jul 26, 09:30 UTC | 15m | - |
| 2026-07-25 | JL2326 | 841B22 | Jul 25, 09:30 UTC | Jul 25, 09:50 UTC | 20m | - |
| 2026-07-24 | JL2326 | 8413FA | Jul 24, 10:05 UTC | Jul 24, 10:25 UTC | 20m | - |
| 2026-07-23 | JL2326 | 841066 | Jul 23, 09:20 UTC | Jul 23, 09:35 UTC | 15m | - |
| 2026-07-21 | JL2326 | 845F72 | Jul 21, 09:05 UTC | Jul 21, 09:30 UTC | 25m | - |
| 2026-07-20 | JL2326 | 8413FA | Jul 20, 09:20 UTC | Jul 20, 09:45 UTC | 25m | - |
| 2026-07-19 | JL2326 | 840CD2 | Jul 19, 09:20 UTC | Jul 19, 09:35 UTC | 15m | - |
| 2026-07-18 | JL2326 | 841066 | Jul 18, 09:05 UTC | Jul 18, 09:25 UTC | 20m | - |
| 2026-07-17 | JL2326 | 845F72 | Jul 17, 09:10 UTC | Jul 17, 09:30 UTC | 20m | - |
| 2026-06-15 | JL2326 | 8413FA | Jun 15, 09:10 UTC | Jun 15, 09:25 UTC | 15m | - |
| 2026-06-13 | JL2326 | 845BDE | Jun 13, 09:05 UTC | Jun 13, 09:25 UTC | 20m | - |
| 2026-06-12 | JL2326 | 8413FA | Jun 12, 09:35 UTC | Jun 12, 09:55 UTC | 20m | - |
| 2026-06-12 | JL2326 | 8413FA | Jun 12, 02:20 UTC | Jun 12, 03:05 UTC | 45m | - |
| 2026-06-10 | JL2326 | 8405AA | Jun 10, 09:35 UTC | Jun 10, 09:55 UTC | 20m | - |
| 2026-06-09 | JL2326 | 840CD2 | Jun 9, 09:30 UTC | Jun 9, 09:50 UTC | 20m | - |
| 2026-06-08 | JL2326 | 841B22 | Jun 8, 09:20 UTC | Jun 8, 09:40 UTC | 20m | - |
| 2026-06-07 | JL2326 | 840CD2 | Jun 7, 09:30 UTC | Jun 7, 09:55 UTC | 25m | - |
| 2026-06-06 | JL2326 | 84093E | Jun 6, 09:09 UTC | Jun 6, 09:30 UTC | 20m | - |
| 2026-06-05 | JL2326 | 841B22 | Jun 5, 09:10 UTC | Jun 5, 09:25 UTC | 15m | - |
| 2026-06-04 | JL2326 | 84093E | Jun 4, 09:50 UTC | Jun 4, 10:15 UTC | 25m | - |
| 2026-06-03 | JL2326 | 8413FA | Jun 3, 09:25 UTC | Jun 3, 09:45 UTC | 20m | - |
| 2026-06-01 | JL2326 | 845F72 | Jun 1, 09:15 UTC | Jun 1, 09:35 UTC | 20m | - |
| 2026-05-31 | JL2326 | 8413FA | May 31, 09:15 UTC | May 31, 09:40 UTC | 25m | - |
| 2026-05-30 | JL2326 | 845F72 | May 30, 09:30 UTC | May 30, 09:50 UTC | 20m | - |
| 2026-05-29 | JL2326 | 845BDE | May 29, 09:15 UTC | May 29, 09:40 UTC | 25m | - |
| 2026-05-28 | JL2326 | 840CD2 | May 28, 09:10 UTC | May 28, 09:30 UTC | 20m | - |
| 2026-05-27 | JL2326 | 84224A | May 27, 09:15 UTC | May 27, 09:35 UTC | 20m | - |
| 2026-05-25 | JL2326 | 845BDE | May 25, 09:10 UTC | May 25, 09:30 UTC | 20m | - |
| 2026-05-24 | JL2326 | 84093E | May 24, 09:15 UTC | May 24, 09:35 UTC | 20m | - |
| 2026-05-23 | JL2326 | 8405AA | May 23, 09:30 UTC | May 23, 10:00 UTC | 30m | - |
| 2026-05-21 | JL2326 | 84224A | May 21, 09:30 UTC | May 21, 09:50 UTC | 20m | - |
| 2026-05-20 | JL2326 | 8413FA | May 20, 09:05 UTC | May 20, 09:25 UTC | 20m | - |
| 2026-05-19 | JL2326 | 840CD2 | May 19, 09:35 UTC | May 19, 09:55 UTC | 20m | - |
| 2026-05-18 | JL2326 | 84224A | May 18, 09:15 UTC | May 18, 09:40 UTC | 25m | - |
| 2026-05-17 | JL2326 | 84093E | May 17, 09:15 UTC | May 17, 09:30 UTC | 15m | - |
| 2026-05-16 | JL2326 | 845BDE | May 16, 09:06 UTC | May 16, 09:25 UTC | 20m | - |
| 2026-05-15 | JL2326 | 8405AA | May 15, 09:05 UTC | May 15, 09:30 UTC | 25m | - |
| 2026-05-14 | JL2326 | 841B22 | May 14, 09:55 UTC | May 14, 10:20 UTC | 25m | - |
| 2026-05-13 | JL2326 | 8405AA | May 13, 09:20 UTC | May 13, 09:35 UTC | 15m | - |
| 2026-05-12 | JL2326 | 8413FA | May 12, 09:05 UTC | May 12, 09:25 UTC | 20m | - |
| 2026-05-11 | JL2326 | 84093E | May 11, 09:05 UTC | May 11, 09:20 UTC | 15m | - |
| 2026-05-10 | JL2326 | 840CD2 | May 10, 09:24 UTC | May 10, 09:50 UTC | 25m | - |
| 2026-05-08 | JL2326 | 840CD2 | May 8, 09:04 UTC | May 8, 09:30 UTC | 25m | - |
| 2026-05-07 | JL2326 | 84093E | May 7, 09:10 UTC | May 7, 09:25 UTC | 15m | - |
| 2026-05-06 | JL2326 | 845F72 | May 6, 09:15 UTC | May 6, 09:30 UTC | 15m | - |
| 2026-05-05 | JL2326 | 841B22 | May 5, 09:20 UTC | May 5, 09:30 UTC | 10m | - |
| 2026-05-04 | JL2326 | 84093E | May 4, 09:25 UTC | May 4, 09:35 UTC | 10m | - |
| 2026-05-03 | JL2326 | 84224A | May 3, 09:20 UTC | May 3, 09:40 UTC | 20m | - |
| 2026-05-02 | JL2326 | 840CD2 | May 2, 09:15 UTC | May 2, 09:30 UTC | 15m | - |
| 2026-04-30 | JL2326 | 841B22 | Apr 30, 09:20 UTC | Apr 30, 09:35 UTC | 15m | - |